createdAt,value
2018-07-01T00:00:36.781Z,74.20
2018-07-01T00:03:06.146Z,74.40
2018-07-01T00:05:35.379Z,74.40
2018-07-01T00:08:04.757Z,74.20
2018-07-01T00:10:34.038Z,74.50
2018-07-01T00:13:03.322Z,74.30
2018-07-01T00:15:32.551Z,74.50
2018-07-01T00:18:01.816Z,75.10
2018-07-01T00:20:31.077Z,75.50
2018-07-01T00:23:00.307Z,75.40
2018-07-01T00:25:29.538Z,75.50
2018-07-01T00:27:58.830Z,75.50
2018-07-01T00:30:28.089Z,75.80
2018-07-01T00:32:57.387Z,75.70
2018-07-01T00:35:26.621Z,75.60
2018-07-01T00:37:55.892Z,75.90
2018-07-01T00:40:26.196Z,75.90
2018-07-01T00:42:55.446Z,76.10
2018-07-01T00:45:24.669Z,76.20
2018-07-01T00:47:53.918Z,76.60
2018-07-01T00:50:23.531Z,76.70
2018-07-01T00:52:52.782Z,77.20
2018-07-01T00:55:22.040Z,77.20
2018-07-01T00:57:52.353Z,76.80
2018-07-01T01:00:26.972Z,76.80
2018-07-01T01:02:56.198Z,77.00
2018-07-01T01:05:25.466Z,77.20
2018-07-01T01:07:55.071Z,77.20
2018-07-01T01:10:25.197Z,77.40
2018-07-01T01:12:54.894Z,77.60
2018-07-01T01:15:24.277Z,78.00
2018-07-01T01:17:53.797Z,77.90
2018-07-01T01:20:23.040Z,78.30
2018-07-01T01:22:52.263Z,78.40
2018-07-01T01:27:50.238Z,79.20
2018-07-01T01:30:19.453Z,80.00
2018-07-01T01:32:48.708Z,80.00
2018-07-01T01:35:17.951Z,80.10
2018-07-01T01:37:47.210Z,80.30
2018-07-01T01:40:18.580Z,80.00
2018-07-01T01:42:55.737Z,81.20
2018-07-01T01:46:36.518Z,82.30
2018-07-01T01:49:10.200Z,83.20
2018-07-01T01:51:44.206Z,83.40
2018-07-01T01:54:18.687Z,84.00
2018-07-01T01:56:51.382Z,84.40
2018-07-01T02:00:30.906Z,84.10
2018-07-01T02:03:05.657Z,84.40
2018-07-01T02:05:50.845Z,85.00
2018-07-01T02:08:24.255Z,86.20
2018-07-01T02:10:53.560Z,86.00
2018-07-01T02:13:22.826Z,86.70
2018-07-01T02:15:57.342Z,87.10
2018-07-01T02:18:26.674Z,87.40
2018-07-01T02:20:55.930Z,88.80
2018-07-01T02:23:29.262Z,88.50
2018-07-01T02:25:58.574Z,89.60
2018-07-01T02:28:27.849Z,89.50
2018-07-01T02:30:57.077Z,89.50
2018-07-01T02:33:30.213Z,90.30
2018-07-01T02:35:59.497Z,90.70
2018-07-01T02:38:28.771Z,91.20
2018-07-01T02:40:58.034Z,91.30
2018-07-01T02:43:27.311Z,91.80
2018-07-01T02:45:56.670Z,91.60
2018-07-01T02:48:25.939Z,91.40
2018-07-01T02:50:55.182Z,91.40
2018-07-01T02:53:24.434Z,91.70
2018-07-01T02:55:53.689Z,91.90
2018-07-01T02:58:22.901Z,92.00
2018-07-01T03:00:52.108Z,91.90
2018-07-01T03:03:21.324Z,92.30
2018-07-01T03:05:50.497Z,93.00
2018-07-01T03:08:19.714Z,93.20
2018-07-01T03:10:48.899Z,93.30
2018-07-01T03:13:18.126Z,93.50
2018-07-01T03:15:47.317Z,93.70
2018-07-01T03:18:16.494Z,94.10
2018-07-01T03:20:45.713Z,94.20
2018-07-01T03:23:14.961Z,94.40
2018-07-01T03:25:44.160Z,95.20
2018-07-01T03:28:13.358Z,95.30
2018-07-01T03:30:42.545Z,96.00
2018-07-01T03:33:11.746Z,97.10
2018-07-01T03:35:41.997Z,97.50
2018-07-01T03:38:11.195Z,97.30
2018-07-01T03:40:40.410Z,97.20
2018-07-01T03:43:10.071Z,96.90
2018-07-01T03:45:39.484Z,97.10
2018-07-01T03:48:08.680Z,97.30
2018-07-01T03:50:37.889Z,97.10
2018-07-01T03:53:14.864Z,98.00
2018-07-01T03:55:44.081Z,99.30
2018-07-01T03:58:13.298Z,99.40
2018-07-01T04:00:42.499Z,99.10
2018-07-01T04:03:11.676Z,99.00
2018-07-01T04:05:40.964Z,99.20
2018-07-01T04:08:10.205Z,99.40
2018-07-01T04:10:39.416Z,99.50
2018-07-01T04:13:08.668Z,99.90
2018-07-01T04:15:37.860Z,99.90
2018-07-01T04:18:08.118Z,99.90
2018-07-01T04:20:37.340Z,99.90
2018-07-01T04:23:06.532Z,99.50
2018-07-01T04:25:35.751Z,99.90
2018-07-01T04:28:04.947Z,99.90
2018-07-01T04:30:38.997Z,99.90
2018-07-01T04:33:08.191Z,99.90
2018-07-01T04:35:37.389Z,99.90
2018-07-01T04:38:06.577Z,99.90
2018-07-01T04:40:35.749Z,99.90
2018-07-01T04:43:11.287Z,99.90
2018-07-01T04:45:40.448Z,99.90
2018-07-01T04:48:09.702Z,99.90
2018-07-01T04:50:38.918Z,99.90
2018-07-01T04:53:08.160Z,99.90
2018-07-01T04:55:37.386Z,99.90
2018-07-01T04:58:06.984Z,99.90
2018-07-01T05:00:36.543Z,99.90
2018-07-01T05:03:05.737Z,99.90
2018-07-01T05:05:34.932Z,99.90
2018-07-01T05:08:04.256Z,99.90
2018-07-01T05:10:33.572Z,99.90
2018-07-01T05:13:02.840Z,99.90
2018-07-01T05:15:32.081Z,99.90
2018-07-01T05:18:01.332Z,99.90
2018-07-01T05:20:37.389Z,99.90
2018-07-01T05:23:06.693Z,99.90
2018-07-01T05:25:35.960Z,99.90
2018-07-01T05:28:05.242Z,99.90
2018-07-01T05:30:34.480Z,99.90
2018-07-01T05:33:03.832Z,98.50
2018-07-01T05:35:33.048Z,97.50
2018-07-01T05:38:02.309Z,96.60
2018-07-01T05:40:31.581Z,95.40
2018-07-01T05:43:00.848Z,95.20
2018-07-01T05:45:30.113Z,95.20
2018-07-01T05:47:59.348Z,95.40
2018-07-01T05:50:28.644Z,92.60
2018-07-01T05:52:57.925Z,93.50
2018-07-01T05:55:44.756Z,92.20
2018-07-01T05:58:14.065Z,92.00
2018-07-01T06:00:43.317Z,91.90
2018-07-01T06:03:12.621Z,90.90
2018-07-01T06:05:41.904Z,90.80
2018-07-01T06:08:12.277Z,90.20
2018-07-01T06:10:47.465Z,90.70
2018-07-01T06:13:36.700Z,89.50
2018-07-01T06:16:07.094Z,90.10
2018-07-01T06:18:36.437Z,90.30
2018-07-01T06:21:05.791Z,86.80
2018-07-01T06:23:35.080Z,82.30
2018-07-01T06:26:04.391Z,83.60
2018-07-01T06:28:39.399Z,83.80
2018-07-01T06:31:19.129Z,84.10
2018-07-01T06:33:49.572Z,83.10
2018-07-01T06:36:18.880Z,83.60
2018-07-01T06:38:48.160Z,81.40
2018-07-01T06:41:17.448Z,80.60
2018-07-01T06:44:07.220Z,81.60
2018-07-01T06:46:36.686Z,80.70
2018-07-01T06:49:06.159Z,80.70
2018-07-01T06:51:35.427Z,78.00
2018-07-01T06:54:04.659Z,78.20
2018-07-01T06:56:34.995Z,76.30
2018-07-01T06:59:04.297Z,76.70
2018-07-01T07:01:45.929Z,77.70
2018-07-01T07:04:17.324Z,78.00
2018-07-01T07:06:46.610Z,78.10
2018-07-01T07:09:15.948Z,77.10
2018-07-01T07:11:45.178Z,77.90
2018-07-01T07:14:16.464Z,76.00
2018-07-01T07:16:50.321Z,74.40
2018-07-01T07:19:21.732Z,77.70
2018-07-01T07:21:50.972Z,77.90
2018-07-01T07:24:20.200Z,75.80
2018-07-01T07:26:56.216Z,77.00
2018-07-01T07:29:25.513Z,73.40
2018-07-01T07:31:56.827Z,75.00
2018-07-01T07:34:26.120Z,74.90
2018-07-01T07:37:00.838Z,74.80
2018-07-01T07:39:30.989Z,73.70
2018-07-01T07:42:00.321Z,74.20
2018-07-01T07:44:31.655Z,78.50
2018-07-01T07:47:00.900Z,75.30
2018-07-01T07:49:30.128Z,75.50
2018-07-01T07:54:28.308Z,72.30
2018-07-01T07:56:57.689Z,73.00
2018-07-01T07:59:30.292Z,73.40
2018-07-01T08:04:38.472Z,71.40
2018-07-01T08:07:08.869Z,73.60
2018-07-01T08:09:43.739Z,72.20
2018-07-01T08:12:12.993Z,71.10
2018-07-01T08:14:42.177Z,69.20
2018-07-01T08:17:11.407Z,70.50
2018-07-01T08:19:40.755Z,69.80
2018-07-01T08:22:13.544Z,72.00
2018-07-01T08:24:42.724Z,73.50
2018-07-01T08:27:11.956Z,71.30
2018-07-01T08:29:41.184Z,69.60
2018-07-01T08:32:10.415Z,69.40
2018-07-01T08:34:39.825Z,69.80
2018-07-01T08:37:10.034Z,68.20
2018-07-01T08:39:39.237Z,68.10
2018-07-01T08:42:20.222Z,67.00
2018-07-01T08:44:52.472Z,67.10
2018-07-01T08:47:21.715Z,67.90
2018-07-01T08:49:50.978Z,64.60
2018-07-01T08:52:20.232Z,64.90
2018-07-01T08:55:01.907Z,62.70
2018-07-01T08:57:31.116Z,63.20
2018-07-01T09:00:00.319Z,61.60
2018-07-01T09:02:30.168Z,62.20
2018-07-01T09:04:59.359Z,63.80
2018-07-01T09:07:28.606Z,63.50
2018-07-01T09:09:57.783Z,63.10
2018-07-01T09:12:26.976Z,62.80
2018-07-01T09:14:56.179Z,63.00
2018-07-01T09:17:25.370Z,64.70
2018-07-01T09:19:54.736Z,62.60
2018-07-01T09:25:10.295Z,63.30
2018-07-01T09:27:51.684Z,61.70
2018-07-01T09:30:20.916Z,63.50
2018-07-01T09:32:50.092Z,62.50
2018-07-01T09:35:19.305Z,60.20
2018-07-01T09:37:48.512Z,61.40
2018-07-01T09:40:17.764Z,61.20
2018-07-01T09:42:46.961Z,62.40
2018-07-01T09:45:16.212Z,60.90
2018-07-01T09:47:45.396Z,62.00
2018-07-01T09:50:15.698Z,62.90
2018-07-01T09:52:48.527Z,63.00
2018-07-01T09:55:17.727Z,62.00
2018-07-01T09:57:47.195Z,60.00
2018-07-01T10:00:21.955Z,60.20
2018-07-01T10:02:54.951Z,60.70
2018-07-01T10:05:24.158Z,60.50
2018-07-01T10:07:53.415Z,62.00
2018-07-01T10:10:22.696Z,59.80
2018-07-01T10:12:51.982Z,60.00
2018-07-01T10:15:23.300Z,61.30
2018-07-01T10:17:52.577Z,62.40
2018-07-01T10:20:21.818Z,61.80
2018-07-01T10:23:08.189Z,58.50
2018-07-01T10:28:10.618Z,62.10
2018-07-01T10:30:39.960Z,61.70
2018-07-01T10:33:09.260Z,62.60
2018-07-01T10:35:38.541Z,61.50
2018-07-01T10:38:08.905Z,61.80
2018-07-01T10:40:47.796Z,60.70
2018-07-01T10:43:17.614Z,60.40
2018-07-01T10:45:47.390Z,60.20
2018-07-01T10:48:17.657Z,59.10
2018-07-01T10:50:47.107Z,60.60
2018-07-01T10:53:16.366Z,62.00
2018-07-01T10:55:45.621Z,62.10
2018-07-01T10:58:14.897Z,60.90
2018-07-01T11:00:44.181Z,60.20
2018-07-01T11:03:13.517Z,60.00
2018-07-01T11:05:48.560Z,59.90
2018-07-01T11:08:17.798Z,60.20
2018-07-01T11:10:46.968Z,59.70
2018-07-01T11:13:16.297Z,62.50
2018-07-01T11:15:45.555Z,62.60
2018-07-01T11:18:14.767Z,61.90
2018-07-01T11:20:44.052Z,62.50
2018-07-01T11:23:13.275Z,59.10
2018-07-01T11:25:42.469Z,62.60
2018-07-01T11:28:17.888Z,61.70
2018-07-01T11:30:47.247Z,62.10
2018-07-01T11:33:16.504Z,60.20
2018-07-01T11:35:45.784Z,60.00
2018-07-01T11:38:15.121Z,61.70
2018-07-01T11:40:44.328Z,62.10
2018-07-01T11:43:17.687Z,60.40
2018-07-01T11:45:47.976Z,61.10
2018-07-01T11:48:19.376Z,60.20
2018-07-01T11:50:54.400Z,58.70
2018-07-01T11:53:24.716Z,61.10
2018-07-01T11:55:53.964Z,59.40
2018-07-01T11:58:29.028Z,59.90
2018-07-01T12:01:02.868Z,60.40
2018-07-01T12:03:45.437Z,61.70
2018-07-01T12:06:15.750Z,59.40
2018-07-01T12:08:47.136Z,59.50
2018-07-01T12:11:16.366Z,59.30
2018-07-01T12:13:45.676Z,60.70
2018-07-01T12:16:14.960Z,60.00
2018-07-01T12:18:44.341Z,58.90
2018-07-01T12:21:15.712Z,62.50
2018-07-01T12:23:44.995Z,61.10
2018-07-01T12:26:14.284Z,60.90
2018-07-01T12:28:44.356Z,57.70
2018-07-01T12:31:14.625Z,58.60
2018-07-01T12:36:18.684Z,58.70
2018-07-01T12:38:48.174Z,60.20
2018-07-01T12:41:17.455Z,58.20
2018-07-01T12:46:15.562Z,57.30
2018-07-01T12:48:44.812Z,55.90
2018-07-01T12:51:14.148Z,58.60
2018-07-01T12:53:47.061Z,58.10
2018-07-01T12:56:16.444Z,58.40
2018-07-01T12:58:45.647Z,56.70
2018-07-01T13:01:14.964Z,56.30
2018-07-01T13:03:49.305Z,56.20
2018-07-01T13:06:19.600Z,54.20
2018-07-01T13:08:49.134Z,55.30
2018-07-01T13:11:19.517Z,55.20
2018-07-01T13:13:55.898Z,57.40
2018-07-01T13:16:25.231Z,56.70
2018-07-01T13:18:54.481Z,54.50
2018-07-01T13:21:23.767Z,55.60
2018-07-01T13:23:53.076Z,54.90
2018-07-01T13:26:24.801Z,55.90
2018-07-01T13:28:54.075Z,56.00
2018-07-01T13:31:23.537Z,55.20
2018-07-01T13:33:52.839Z,54.20
2018-07-01T13:36:26.131Z,53.80
2018-07-01T13:38:55.431Z,54.70
2018-07-01T13:41:24.766Z,56.00
2018-07-01T13:43:54.158Z,54.40
2018-07-01T13:46:27.793Z,54.60
2018-07-01T13:48:57.057Z,55.70
2018-07-01T13:51:26.352Z,56.40
2018-07-01T13:53:55.843Z,55.60
2018-07-01T13:56:25.132Z,55.30
2018-07-01T13:58:54.456Z,54.50
2018-07-01T14:01:23.790Z,53.90
2018-07-01T14:03:53.070Z,55.60
2018-07-01T14:06:22.591Z,54.70
2018-07-01T14:08:51.842Z,54.40
2018-07-01T14:11:21.112Z,54.80
2018-07-01T14:13:50.416Z,54.20
2018-07-01T14:16:19.730Z,54.20
2018-07-01T14:18:48.983Z,53.50
2018-07-01T14:21:18.244Z,54.30
2018-07-01T14:23:47.559Z,54.70
2018-07-01T14:26:16.899Z,54.40
2018-07-01T14:28:46.261Z,55.10
2018-07-01T14:31:16.189Z,55.10
2018-07-01T14:33:45.562Z,53.90
2018-07-01T14:36:14.873Z,54.60
2018-07-01T14:39:02.716Z,52.70
2018-07-01T14:41:36.696Z,53.90
2018-07-01T14:44:06.065Z,52.40
2018-07-01T14:46:35.474Z,53.00
2018-07-01T14:49:04.788Z,54.60
2018-07-01T14:51:34.440Z,54.60
2018-07-01T14:54:04.152Z,54.40
2018-07-01T14:59:02.540Z,52.40
2018-07-01T15:01:31.769Z,52.80
2018-07-01T15:04:01.873Z,54.50
2018-07-01T15:06:31.287Z,53.30
2018-07-01T15:09:00.540Z,53.20
2018-07-01T15:11:39.543Z,53.90
2018-07-01T15:14:10.756Z,54.50
2018-07-01T15:16:40.033Z,52.50
2018-07-01T15:19:29.319Z,54.20
2018-07-01T15:21:58.527Z,53.30
2018-07-01T15:24:27.747Z,52.60
2018-07-01T15:26:56.968Z,52.70
2018-07-01T15:29:26.262Z,53.20
2018-07-01T15:31:55.458Z,54.50
2018-07-01T15:34:24.655Z,52.60
2018-07-01T15:36:55.140Z,53.40
2018-07-01T15:39:24.445Z,53.70
2018-07-01T15:41:57.585Z,53.40
2018-07-01T15:44:26.859Z,52.80
2018-07-01T15:46:56.464Z,54.20
2018-07-01T15:49:25.709Z,53.60
2018-07-01T15:51:55.141Z,53.00
2018-07-01T15:54:34.617Z,52.80
2018-07-01T15:57:06.778Z,53.10
2018-07-01T16:00:00.240Z,53.80
2018-07-01T16:02:30.502Z,54.50
2018-07-01T16:05:05.419Z,55.20
2018-07-01T16:07:34.856Z,53.90
2018-07-01T16:10:06.203Z,53.90
2018-07-01T16:12:37.272Z,53.20
2018-07-01T16:15:06.557Z,53.70
2018-07-01T16:17:35.845Z,54.50
2018-07-01T16:20:07.284Z,52.50
2018-07-01T16:22:43.122Z,52.30
2018-07-01T16:25:17.798Z,53.70
2018-07-01T16:27:59.393Z,53.50
2018-07-01T16:30:28.684Z,53.30
2018-07-01T16:32:57.991Z,53.40
2018-07-01T16:35:33.791Z,53.70
2018-07-01T16:38:07.184Z,54.40
2018-07-01T16:40:36.602Z,54.20
2018-07-01T16:43:06.076Z,54.20
2018-07-01T16:45:35.408Z,54.80
2018-07-01T16:48:04.711Z,54.20
2018-07-01T16:50:36.024Z,53.50
2018-07-01T16:53:05.314Z,54.70
2018-07-01T16:55:34.812Z,54.10
2018-07-01T16:58:04.104Z,54.20
2018-07-01T17:00:33.436Z,54.70
2018-07-01T17:03:02.799Z,55.00
2018-07-01T17:05:32.232Z,55.60
2018-07-01T17:08:06.730Z,55.60
2018-07-01T17:10:37.154Z,55.50
2018-07-01T17:13:06.426Z,54.80
2018-07-01T17:15:35.635Z,55.30
2018-07-01T17:18:05.023Z,54.70
2018-07-01T17:20:34.193Z,55.00
2018-07-01T17:25:37.997Z,55.40
2018-07-01T17:28:09.336Z,55.50
2018-07-01T17:30:38.526Z,55.20
2018-07-01T17:33:13.460Z,55.50
2018-07-01T17:35:42.643Z,55.30
2018-07-01T17:38:11.915Z,55.60
2018-07-01T17:40:41.242Z,54.90
2018-07-01T17:43:11.490Z,54.50
2018-07-01T17:45:40.657Z,55.00
2018-07-01T17:48:10.924Z,55.00
2018-07-01T17:50:40.093Z,55.00
2018-07-01T17:53:09.908Z,55.20
2018-07-01T17:55:47.733Z,55.50
2018-07-01T17:58:16.973Z,54.80
2018-07-01T18:00:46.176Z,54.40
2018-07-01T18:03:19.813Z,55.30
2018-07-01T18:05:49.142Z,54.90
2018-07-01T18:08:19.501Z,55.10
2018-07-01T18:10:48.777Z,55.60
2018-07-01T18:13:18.542Z,56.10
2018-07-01T18:15:53.520Z,56.10
2018-07-01T18:18:28.762Z,56.60
2018-07-01T18:21:01.548Z,56.20
2018-07-01T18:24:02.967Z,56.20
2018-07-01T18:26:00.613Z,56.40
2018-07-01T18:28:48.659Z,57.10
2018-07-01T18:31:12.297Z,55.90
2018-07-01T18:33:42.101Z,55.80
2018-07-01T18:36:11.368Z,55.90
2018-07-01T18:38:41.720Z,56.30
2018-07-01T18:41:11.006Z,55.90
2018-07-01T18:43:40.855Z,56.20
2018-07-01T18:46:10.253Z,56.50
2018-07-01T18:48:40.611Z,56.40
2018-07-01T18:51:09.980Z,57.00
2018-07-01T18:53:44.852Z,56.20
2018-07-01T18:56:14.120Z,57.20
2018-07-01T18:58:43.377Z,57.50
2018-07-01T19:01:12.832Z,56.40
2018-07-01T19:03:46.464Z,57.10
2018-07-01T19:06:15.837Z,58.40
2018-07-01T19:08:50.551Z,58.90
2018-07-01T19:11:19.836Z,58.90
2018-07-01T19:13:49.003Z,59.20
2018-07-01T19:16:18.187Z,59.10
2018-07-01T19:18:48.626Z,59.90
2018-07-01T19:21:17.859Z,59.80
2018-07-01T19:23:47.040Z,59.90
2018-07-01T19:26:17.337Z,59.40
2018-07-01T19:28:46.654Z,60.50
2018-07-01T19:31:15.829Z,60.40
2018-07-01T19:33:45.056Z,60.10
2018-07-01T19:36:15.168Z,60.10
2018-07-01T19:38:44.316Z,60.40
2018-07-01T19:41:13.576Z,60.10
2018-07-01T19:43:42.778Z,60.00
2018-07-01T19:46:12.069Z,60.30
2018-07-01T19:48:41.353Z,59.60
2018-07-01T19:51:10.590Z,59.80
2018-07-01T19:53:45.773Z,59.90
2018-07-01T19:56:15.021Z,59.60
2018-07-01T19:58:45.301Z,60.50
2018-07-01T20:01:14.500Z,60.00
2018-07-01T20:03:43.687Z,59.90
2018-07-01T20:06:15.056Z,60.70
2018-07-01T20:08:47.922Z,60.60
2018-07-01T20:11:18.221Z,60.70
2018-07-01T20:16:26.803Z,61.00
2018-07-01T20:19:01.844Z,60.90
2018-07-01T20:21:31.202Z,61.50
2018-07-01T20:24:02.455Z,61.50
2018-07-01T20:26:36.946Z,61.80
2018-07-01T20:29:07.801Z,62.40
2018-07-01T20:31:37.183Z,62.40
2018-07-01T20:34:06.603Z,62.50
2018-07-01T20:39:10.759Z,63.00
2018-07-01T20:41:40.490Z,63.10
2018-07-01T20:44:11.027Z,63.40
2018-07-01T20:46:41.275Z,63.70
2018-07-01T20:49:12.605Z,64.00
2018-07-01T20:51:49.507Z,63.90
2018-07-01T20:54:23.176Z,64.10
2018-07-01T20:56:52.616Z,64.00
2018-07-01T20:59:23.908Z,64.60
2018-07-01T21:01:54.133Z,64.70
2018-07-01T21:04:25.422Z,65.20
2018-07-01T21:07:01.637Z,65.30
2018-07-01T21:09:35.301Z,65.40
2018-07-01T21:12:04.601Z,65.50
2018-07-01T21:14:33.844Z,65.50
2018-07-01T21:17:09.401Z,65.70
2018-07-01T21:19:38.657Z,65.80
2018-07-01T21:22:07.934Z,66.20
2018-07-01T21:24:37.216Z,65.90
2018-07-01T21:27:06.514Z,66.00
2018-07-01T21:29:35.838Z,66.50
2018-07-01T21:32:05.233Z,66.60
2018-07-01T21:34:34.525Z,66.60
2018-07-01T21:37:03.830Z,66.50
2018-07-01T21:39:33.147Z,66.50
2018-07-01T21:42:02.436Z,68.00
2018-07-01T21:44:31.710Z,67.20
2018-07-01T21:47:01.089Z,67.70
2018-07-01T21:49:30.352Z,68.00
2018-07-01T21:52:10.161Z,68.00
2018-07-01T21:54:39.442Z,68.90
2018-07-01T21:57:08.720Z,68.20
2018-07-01T21:59:38.051Z,68.30
2018-07-01T22:02:07.678Z,68.50
2018-07-01T22:04:39.356Z,68.60
2018-07-01T22:07:09.083Z,68.80
2018-07-01T22:09:38.640Z,68.90
2018-07-01T22:12:21.329Z,69.20
2018-07-01T22:15:01.929Z,69.30
2018-07-01T22:17:31.511Z,69.30
2018-07-01T22:20:01.264Z,70.00
2018-07-01T22:22:31.009Z,70.10
2018-07-01T22:25:01.040Z,70.10
2018-07-01T22:27:41.141Z,70.50
2018-07-01T22:30:10.707Z,70.50
2018-07-01T22:32:40.733Z,70.90
2018-07-01T22:35:11.833Z,71.20
2018-07-01T22:37:41.572Z,71.20
2018-07-01T22:40:12.672Z,71.70
2018-07-01T22:42:47.651Z,72.50
2018-07-01T22:45:17.301Z,71.10
2018-07-01T22:47:48.175Z,70.80
2018-07-01T22:50:18.117Z,71.10
2018-07-01T22:52:47.937Z,71.40
2018-07-01T22:55:17.819Z,71.90
2018-07-01T22:57:54.742Z,72.50
2018-07-01T23:00:24.345Z,73.20
2018-07-01T23:03:20.082Z,73.50
2018-07-01T23:05:50.888Z,72.80
2018-07-01T23:08:20.599Z,72.40
2018-07-01T23:10:52.120Z,73.40
2018-07-01T23:13:21.792Z,73.70
2018-07-01T23:15:52.513Z,72.80
2018-07-01T23:18:22.102Z,74.00
2018-07-01T23:20:51.836Z,74.00
2018-07-01T23:23:32.194Z,75.60
2018-07-01T23:26:01.966Z,75.20
2018-07-01T23:28:32.917Z,76.10
2018-07-01T23:31:02.765Z,75.60
2018-07-01T23:33:34.487Z,75.50
2018-07-01T23:36:04.206Z,75.40
2018-07-01T23:38:33.836Z,75.80
2018-07-01T23:41:03.545Z,76.20
2018-07-01T23:43:33.351Z,76.70
2018-07-01T23:46:03.179Z,76.90
2018-07-01T23:48:32.454Z,76.70
2018-07-01T23:51:02.273Z,76.30
2018-07-01T23:53:32.171Z,76.60
2018-07-01T23:56:02.072Z,76.90
2018-07-01T23:58:31.409Z,76.90
